Dades meteomassalio
Diari Summary for Abril 6, 2017 Units:  Metric    English   Both
« Previous Day
Next Day »
Diari Semanal Mensual Anual Personalitzat
  Maxima: Minima: Mijana:
Temperatura: -17.8 °C -13.3 °C -9.9 °C
Rosada: -17.8 °C -16.2 °C -14.8 °C
Humitat: Humidity % 31 % 58 %
Velocitat del vent: 0 km/h 0 km/h 29.8 km/h
Racha vent: 0 km/h - -
Vent:- - West
Pressio: 0 hPa 34395 hPa -
Pluja: 0 mm    
Historical Graphs
 
 
Tabular Data for Abril 6, 2017
Time Temperature Dew Point Pressure Wind Wind Speed Wind Gust Humidity Rainfall Rate (Hourly) solar Conditions
-17.8 °C -17.8 °C 0 hPa Calm     Humidity % 0 mm SolarRadiationWatts/m^2 W/m2 Conditions
00:04 -11.3 °C -14.3 °C 34591.4 hPa West 29.8 km/h 29.8 km/h 70 % 0 mm 0.0 W/m2 CLR
00:09 -11.3 °C -14.3 °C 34591.4 hPa WNW 35.7 km/h 35.7 km/h 70 % 0 mm 0.0 W/m2 CLR
00:14 -11.4 °C -14.3 °C 34577.8 hPa West 47.6 km/h 47.6 km/h 70 % 0 mm 0.0 W/m2 CLR
00:19 -11.4 °C -14.3 °C 34577.8 hPa West 38.8 km/h 38.8 km/h 70 % 0 mm 0.0 W/m2 CLR
00:24 -11.5 °C -14.3 °C 34577.8 hPa West 53.6 km/h 53.6 km/h 71 % 0 mm 0.0 W/m2 CLR
00:29 -11.5 °C -14.3 °C 34577.8 hPa West 50.7 km/h 50.7 km/h 71 % 0 mm 0.0 W/m2 CLR
00:34 -11.5 °C -14.2 °C 34577.8 hPa WSW 44.1 km/h 44.1 km/h 72 % 0 mm 0.0 W/m2 CLR
00:39 -11.6 °C -14.3 °C 34577.8 hPa West 44.7 km/h 44.7 km/h 72 % 0 mm 0.0 W/m2 CLR
00:44 -11.6 °C -14.3 °C 34577.8 hPa West 57 km/h 57 km/h 72 % 0 mm 0.0 W/m2 CLR
00:49 -11.6 °C -14.3 °C 34577.8 hPa West 41.7 km/h 41.7 km/h 72 % 0 mm 0.0 W/m2 CLR
00:54 -11.6 °C -14.3 °C 34591.4 hPa West 32.8 km/h 32.8 km/h 72 % 0 mm 0.0 W/m2 CLR
00:59 -11.6 °C -14.2 °C 34591.4 hPa West 33.6 km/h 33.6 km/h 73 % 0 mm 0.0 W/m2 CLR
01:04 -11.7 °C -14.3 °C 34591.4 hPa West 44.7 km/h 44.7 km/h 73 % 0 mm 0.0 W/m2 CLR
01:09 -11.7 °C -14.3 °C 34591.4 hPa West 35.7 km/h 35.7 km/h 73 % 0 mm 0.0 W/m2 CLR
01:14 -11.7 °C -14.3 °C 34591.4 hPa West 32.8 km/h 32.8 km/h 73 % 0 mm 0.0 W/m2 CLR
01:19 -11.8 °C -14.3 °C 34591.4 hPa West 35.7 km/h 35.7 km/h 73 % 0 mm 0.0 W/m2 CLR
01:24 -11.8 °C -14.4 °C 34591.4 hPa West 38.8 km/h 38.8 km/h 73 % 0 mm 0.0 W/m2 CLR
01:29 -11.8 °C -14.3 °C 34591.4 hPa West 33.6 km/h 34.9 km/h 74 % 0 mm 0.0 W/m2 CLR
01:35 -11.8 °C -14.3 °C 34591.4 hPa WSW 33.6 km/h 33.6 km/h 74 % 0 mm 0.0 W/m2 CLR
01:40 -11.8 °C -14.3 °C 34591.4 hPa WSW 41.7 km/h 41.7 km/h 74 % 0 mm 0.0 W/m2 CLR
01:45 -11.8 °C -14.3 °C 34591.4 hPa WSW 38.8 km/h 38.8 km/h 74 % 0 mm 0.0 W/m2 CLR
01:50 -11.9 °C -14.3 °C 34591.4 hPa West 33.6 km/h 34 km/h 74 % 0 mm 0.0 W/m2 CLR
01:55 -11.9 °C -14.4 °C 34591.4 hPa WSW 35.7 km/h 35.7 km/h 74 % 0 mm 0.0 W/m2 CLR
02:00 -12 °C -14.3 °C 34591.4 hPa WSW 35.7 km/h 35.7 km/h 75 % 0 mm 0.0 W/m2 CLR
02:05 -12.1 °C -14.4 °C 34591.4 hPa West 29.8 km/h 29.8 km/h 75 % 0 mm 0.0 W/m2 CLR
02:10 -12.1 °C -14.4 °C 34577.8 hPa West 26.9 km/h 26.9 km/h 75 % 0 mm 0.0 W/m2 CLR
02:15 -12.1 °C -14.4 °C 34591.4 hPa West 38.8 km/h 38.8 km/h 75 % 0 mm 0.0 W/m2 CLR
02:20 -12.1 °C -14.4 °C 34591.4 hPa West 35.7 km/h 35.7 km/h 75 % 0 mm 0.0 W/m2 CLR
02:25 -12.1 °C -14.4 °C 34601.5 hPa WNW 26.9 km/h 26.9 km/h 75 % 0 mm 0.0 W/m2 CLR
02:30 -12.1 °C -14.5 °C 34591.4 hPa West 29.8 km/h 29.8 km/h 75 % 0 mm 0.0 W/m2 CLR
02:35 -12.2 °C -14.5 °C 34591.4 hPa West 29.8 km/h 29.8 km/h 76 % 0 mm 0.0 W/m2 CLR
02:40 -12.2 °C -14.4 °C 34591.4 hPa WNW 29.8 km/h 29.8 km/h 76 % 0 mm 0.0 W/m2 CLR
02:45 -12.2 °C -14.4 °C 34591.4 hPa West 29.8 km/h 29.8 km/h 76 % 0 mm 0.0 W/m2 CLR
02:50 -12.2 °C -14.5 °C 34591.4 hPa WSW 35.7 km/h 35.7 km/h 76 % 0 mm 0.0 W/m2 CLR
02:55 -12.2 °C -14.5 °C 34591.4 hPa West 20.9 km/h 20.9 km/h 76 % 0 mm 0.0 W/m2 CLR
03:00 -12.3 °C -14.5 °C 34591.4 hPa West 20.9 km/h 20.9 km/h 76 % 0 mm 0.0 W/m2 CLR
03:05 -12.3 °C -14.6 °C 34591.4 hPa West 35.7 km/h 35.7 km/h 76 % 0 mm 0.0 W/m2 CLR
03:10 -12.3 °C -14.6 °C 34591.4 hPa WSW 26.9 km/h 26.9 km/h 76 % 0 mm 0.0 W/m2 CLR
03:15 -12.3 °C -14.6 °C 34591.4 hPa SW 15 km/h 15 km/h 76 % 0 mm 0.0 W/m2 CLR
03:20 -12.3 °C -14.6 °C 34591.4 hPa West 20.9 km/h 20.9 km/h 76 % 0 mm 0.0 W/m2 CLR
03:30 -12.3 °C -14.6 °C 34591.4 hPa WSW 26.9 km/h 26.9 km/h 76 % 0 mm 0.0 W/m2 CLR
03:35 -12.3 °C -14.6 °C 34601.5 hPa WSW 17.9 km/h 17.9 km/h 76 % 0 mm 0.0 W/m2 CLR
03:40 -12.4 °C -14.7 °C 34591.4 hPa WSW 23.8 km/h 23.8 km/h 76 % 0 mm 0.0 W/m2 CLR
03:45 -12.4 °C -14.7 °C 34591.4 hPa WSW 17.9 km/h 17.9 km/h 76 % 0 mm 0.0 W/m2 CLR
03:50 -12.4 °C -14.6 °C 34591.4 hPa West 29.8 km/h 29.8 km/h 77 % 0 mm 0.0 W/m2 CLR
03:55 -12.4 °C -14.6 °C 34591.4 hPa West 29.8 km/h 29.8 km/h 77 % 0 mm 0.0 W/m2 CLR
04:10 -12.4 °C -14.6 °C 34591.4 hPa West 29.8 km/h 29.8 km/h 77 % 0 mm 0.0 W/m2 CLR
04:15 -12.5 °C -14.6 °C 34591.4 hPa WSW 26.9 km/h 26.9 km/h 77 % 0 mm 0.0 W/m2 CLR
04:20 -12.6 °C -14.7 °C 34591.4 hPa WSW 15 km/h 15 km/h 77 % 0 mm 0.0 W/m2 CLR
04:25 -12.6 °C -14.7 °C 34591.4 hPa WSW 17.9 km/h 17.9 km/h 77 % 0 mm 0.0 W/m2 CLR
04:30 -12.7 °C -14.7 °C 34591.4 hPa West 20.8 km/h 20.8 km/h 78 % 0 mm 0.0 W/m2 CLR
04:35 -12.7 °C -14.7 °C 34591.4 hPa West 25.9 km/h 25.9 km/h 78 % 0 mm 0.0 W/m2 CLR
04:40 -12.6 °C -14.7 °C 34591.4 hPa WSW 33.6 km/h 33.6 km/h 78 % 0 mm 0.0 W/m2 CLR
04:45 -12.6 °C -14.6 °C 34591.4 hPa WSW 29.8 km/h 29.8 km/h 78 % 0 mm 0.0 W/m2 CLR
04:50 -12.6 °C -14.7 °C 34591.4 hPa SSW 32.8 km/h 32.8 km/h 77 % 0 mm 0.0 W/m2 CLR
05:00 -12.5 °C -14.6 °C 34591.4 hPa West 26.9 km/h 26.9 km/h 77 % 0 mm 0.0 W/m2 CLR
05:05 -12.5 °C -14.6 °C 34591.4 hPa West 29.8 km/h 29.8 km/h 77 % 0 mm 0.0 W/m2 CLR
05:10 -12.5 °C -14.6 °C 34591.4 hPa West 35.7 km/h 35.7 km/h 77 % 0 mm 0.0 W/m2 CLR
05:15 -12.4 °C -14.6 °C 34591.4 hPa WNW 29.8 km/h 29.8 km/h 77 % 0 mm 0.0 W/m2 CLR
05:20 -12.4 °C -14.6 °C 34591.4 hPa West 29.8 km/h 29.8 km/h 77 % 0 mm 0.0 W/m2 CLR
05:25 -12.4 °C -14.6 °C 34591.4 hPa WSW 33.6 km/h 33.6 km/h 77 % 0 mm 0.0 W/m2 CLR
05:30 -12.4 °C -14.6 °C 34577.8 hPa WSW 35.7 km/h 35.7 km/h 77 % 0 mm 0.0 W/m2 CLR
05:35 -12.4 °C -14.6 °C 34577.8 hPa WNW 38.8 km/h 38.8 km/h 77 % 0 mm 0.0 W/m2 CLR
05:40 -12.5 °C -14.6 °C 34577.8 hPa West 36.2 km/h 36.2 km/h 78 % 0 mm 0.0 W/m2 CLR
05:45 -12.4 °C -14.6 °C 34577.8 hPa West 41.7 km/h 41.7 km/h 77 % 0 mm 0.0 W/m2 CLR
05:50 -12.5 °C -14.6 °C 34577.8 hPa West 29.8 km/h 29.8 km/h 77 % 0 mm 0.0 W/m2 CLR
05:55 -12.6 °C -14.6 °C 34577.8 hPa WNW 29.8 km/h 29.8 km/h 78 % 0 mm 0.0 W/m2 CLR
06:00 -12.6 °C -14.6 °C 34577.8 hPa West 29.8 km/h 29.8 km/h 78 % 0 mm 0.0 W/m2 CLR
06:05 -12.6 °C -14.6 °C 34591.4 hPa West 26.9 km/h 26.9 km/h 78 % 0 mm 0.0 W/m2 CLR
06:10 -12.6 °C -14.7 °C 34577.8 hPa West 29.8 km/h 29.8 km/h 78 % 0 mm 0.0 W/m2 CLR
06:15 -12.6 °C -14.7 °C 34577.8 hPa West 20.9 km/h 20.9 km/h 78 % 0 mm 0.0 W/m2 CLR
06:20 -12.7 °C -14.6 °C 34591.4 hPa West 26.9 km/h 26.9 km/h 79 % 0 mm 0.0 W/m2 CLR
06:25 -12.7 °C -14.6 °C 34591.4 hPa WSW 20.9 km/h 20.9 km/h 79 % 0 mm 0.0 W/m2 CLR
06:30 -12.8 °C -14.7 °C 34591.4 hPa WSW 9 km/h 9 km/h 79 % 0 mm 0.0 W/m2 CLR
06:35 -12.9 °C -14.8 °C 34591.4 hPa SW 20.9 km/h 20.9 km/h 79 % 0 mm 0.0 W/m2 CLR
06:40 -12.9 °C -14.8 °C 34591.4 hPa WSW 11.9 km/h 11.9 km/h 80 % 0 mm 0.0 W/m2 CLR
06:45 -13.1 °C -14.9 °C 34591.4 hPa WSW 20.9 km/h 20.9 km/h 80 % 0 mm 0.0 W/m2 CLR
06:51 -13.1 °C -14.8 °C 34591.4 hPa WSW 17.9 km/h 17.9 km/h 81 % 0 mm 0.0 W/m2 CLR
06:56 -13.2 °C -14.8 °C 34591.4 hPa WSW 9 km/h 9 km/h 81 % 0 mm 0.0 W/m2 CLR
07:01 -13.2 °C -14.8 °C 34591.4 hPa SW 9 km/h 9 km/h 81 % 0 mm 0.0 W/m2 CLR
07:11 -13.2 °C -14.8 °C 34601.5 hPa SW 9 km/h 10.6 km/h 81 % 0 mm 0.0 W/m2 CLR
07:16 -13.2 °C -14.9 °C 34601.5 hPa SW 11.9 km/h 11.9 km/h 81 % 0 mm 0.0 W/m2 CLR
07:21 -13.2 °C -14.9 °C 34601.5 hPa SW 11.9 km/h 11.9 km/h 81 % 0 mm 0.0 W/m2 CLR
07:26 -13.2 °C -14.9 °C 34601.5 hPa SW 9 km/h 9 km/h 81 % 0 mm 0.0 W/m2 OVC
07:31 -13.3 °C -14.9 °C 34601.5 hPa SW 15 km/h 15 km/h 82 % 0 mm 0.0 W/m2 OVC
07:36 -13.2 °C -14.9 °C 34601.5 hPa SW 9 km/h 9 km/h 81 % 0 mm 5.0 W/m2 OVC
07:41 -13.3 °C -14.9 °C 34601.5 hPa SW 15 km/h 15 km/h 82 % 0 mm 7.0 W/m2 BKN
07:46 -13.2 °C -14.8 °C 34601.5 hPa SW 11.9 km/h 11.9 km/h 82 % 0 mm 11.0 W/m2 BKN
07:51 -13.2 °C -14.9 °C 34601.5 hPa SW 15 km/h 15 km/h 81 % 0 mm 14.0 W/m2 BKN
07:56 -13.2 °C -14.9 °C 34611.7 hPa SW 12.9 km/h 12.9 km/h 81 % 0 mm 18.0 W/m2 BKN
08:01 -13.1 °C -14.8 °C 34611.7 hPa SW 15 km/h 15 km/h 81 % 0 mm 21.0 W/m2 BKN
08:06 -13 °C -14.8 °C 34611.7 hPa SSW 12.9 km/h 12.9 km/h 80 % 0 mm 26.0 W/m2 BKN
08:11 -13 °C -14.8 °C 34611.7 hPa SW 11.9 km/h 11.9 km/h 80 % 0 mm 33.0 W/m2 BKN
08:16 -13 °C -14.8 °C 34611.7 hPa SW 15 km/h 15 km/h 80 % 0 mm 42.0 W/m2 BKN
08:21 -12.9 °C -14.7 °C 34611.7 hPa SW 11.9 km/h 11.9 km/h 80 % 0 mm 58.0 W/m2 SCT
08:26 -12.8 °C -14.8 °C 34611.7 hPa SW 15 km/h 15 km/h 79 % 0 mm 70.0 W/m2 FEW
08:31 -12.7 °C -14.7 °C 34611.7 hPa SW 20.9 km/h 20.9 km/h 79 % 0 mm 76.0 W/m2 FEW
08:41 -12.4 °C -14.6 °C 34611.7 hPa WSW 17.9 km/h 17.9 km/h 77 % 0 mm 116.0 W/m2 CLR
08:46 -12.3 °C -14.6 °C 34611.7 hPa West 9 km/h 9 km/h 76 % 0 mm 44.0 W/m2 CLR
08:51 -12.2 °C -14.5 °C 34611.7 hPa WSW 10.3 km/h 10.3 km/h 75 % 0 mm 84.0 W/m2 SCT
08:56 -12.1 °C -14.6 °C 34611.7 hPa West 23.8 km/h 23.8 km/h 73 % 0 mm 171.0 W/m2 FEW
09:01 -11.9 °C -14.5 °C 34611.7 hPa West 29.8 km/h 29.8 km/h 73 % 0 mm 192.0 W/m2 CLR
09:11 -11.8 °C -14.5 °C 34611.7 hPa WSW 17.9 km/h 17.9 km/h 72 % 0 mm 225.0 W/m2 CLR
09:16 -11.7 °C -14.6 °C 34611.7 hPa WSW 20.9 km/h 20.9 km/h 71 % 0 mm 241.0 W/m2 CLR
09:21 -11.7 °C -14.6 °C 34611.7 hPa SW 32.8 km/h 32.8 km/h 70 % 0 mm 260.0 W/m2 CLR
09:26 -11.6 °C -14.6 °C 34601.5 hPa West 29.8 km/h 29.8 km/h 70 % 0 mm 278.0 W/m2 CLR
09:31 -11.5 °C -14.6 °C 34601.5 hPa WSW 29.8 km/h 29.8 km/h 69 % 0 mm 294.0 W/m2 CLR
09:36 -11.5 °C -14.6 °C 34601.5 hPa WSW 26.9 km/h 26.9 km/h 69 % 0 mm 309.0 W/m2 CLR
09:41 -11.4 °C -14.6 °C 34601.5 hPa West 32.8 km/h 32.8 km/h 68 % 0 mm 325.0 W/m2 CLR
09:42 -11.4 °C -14.6 °C 34601.5 hPa WNW 29.8 km/h 29.8 km/h 68 % 0 mm 330.0 W/m2 CLR
09:47 -11.4 °C -14.6 °C 34601.5 hPa WSW 29.8 km/h 29.8 km/h 68 % 0 mm 348.0 W/m2 CLR
09:52 -11.3 °C -14.6 °C 34601.5 hPa NW 38.8 km/h 38.8 km/h 68 % 0 mm 362.0 W/m2 CLR
09:57 -11.2 °C -14.6 °C 34601.5 hPa West 29.8 km/h 29.8 km/h 67 % 0 mm 378.0 W/m2 CLR
10:02 -11.2 °C -14.5 °C 34601.5 hPa WNW 32.8 km/h 32.8 km/h 67 % 0 mm 396.0 W/m2 CLR
10:07 -11.1 °C -14.6 °C 34601.5 hPa WNW 41.7 km/h 41.7 km/h 66 % 0 mm 410.0 W/m2 CLR
10:12 -11 °C -14.3 °C 34601.5 hPa West 25.9 km/h 25.9 km/h 67 % 0 mm 425.0 W/m2 CLR
10:17 -11 °C -14.4 °C 34601.5 hPa West 33.6 km/h 33.6 km/h 66 % 0 mm 441.0 W/m2 CLR
10:22 -11 °C -14.6 °C 34601.5 hPa West 29.8 km/h 29.8 km/h 65 % 0 mm 455.0 W/m2 CLR
10:27 -10.8 °C -14.4 °C 34601.5 hPa West 23.8 km/h 23.8 km/h 65 % 0 mm 475.0 W/m2 CLR
10:28 -10.8 °C -14.2 °C 34601.5 hPa WNW 38.8 km/h 38.8 km/h 66 % 0 mm 475.0 W/m2 CLR
10:33 -10.8 °C -14.6 °C 34601.5 hPa NW 53.6 km/h 53.6 km/h 63 % 0 mm 490.0 W/m2 CLR
10:38 -10.9 °C -14.6 °C 34601.5 hPa WSW 38.8 km/h 38.8 km/h 64 % 0 mm 504.0 W/m2 CLR
10:43 -10.8 °C -14.4 °C 34601.5 hPa West 41.7 km/h 41.7 km/h 64 % 0 mm 519.0 W/m2 CLR
10:48 -10.6 °C -14.3 °C 34601.5 hPa West 35.7 km/h 35.7 km/h 64 % 0 mm 533.0 W/m2 CLR
10:53 -10.5 °C -14.3 °C 34601.5 hPa West 41.7 km/h 41.7 km/h 63 % 0 mm 543.0 W/m2 CLR
10:58 -10.7 °C -14.6 °C 34601.5 hPa WSW 47.6 km/h 47.6 km/h 62 % 0 mm 561.0 W/m2 CLR
11:03 -10.5 °C -14.3 °C 34601.5 hPa WNW 47.6 km/h 47.6 km/h 63 % 0 mm 571.0 W/m2 CLR
11:08 -10.3 °C -14.2 °C 34591.4 hPa West 44.7 km/h 44.7 km/h 63 % 0 mm 582.0 W/m2 CLR
11:13 -10.3 °C -14.3 °C 34601.5 hPa WNW 28.5 km/h 28.5 km/h 62 % 0 mm 599.0 W/m2 CLR
11:18 -10.2 °C -14.3 °C 34601.5 hPa NW 38.8 km/h 38.8 km/h 61 % 0 mm 610.0 W/m2 CLR
11:23 -10 °C -14.1 °C 34601.5 hPa West 33.6 km/h 33.6 km/h 61 % 0 mm 624.0 W/m2 CLR
11:28 -10.1 °C -14.3 °C 34591.4 hPa West 38.8 km/h 38.8 km/h 60 % 0 mm 635.0 W/m2 CLR
11:33 -9.9 °C -14.2 °C 34591.4 hPa West 44.1 km/h 44.1 km/h 60 % 0 mm 649.0 W/m2 CLR
11:38 -9.9 °C -14.2 °C 34591.4 hPa WNW 47.6 km/h 47.6 km/h 60 % 0 mm 666.0 W/m2 CLR
11:43 -9.9 °C -14.3 °C 34591.4 hPa WNW 50.7 km/h 50.7 km/h 59 % 0 mm 670.0 W/m2 CLR
11:48 -9.9 °C -14.4 °C 34591.4 hPa West 47.6 km/h 47.6 km/h 58 % 0 mm 686.0 W/m2 CLR
11:53 -9.9 °C -14.4 °C 34591.4 hPa West 41.7 km/h 41.7 km/h 58 % 0 mm 691.0 W/m2 CLR
11:58 -9.7 °C -14.4 °C 34591.4 hPa West 38.8 km/h 38.8 km/h 57 % 0 mm 700.0 W/m2 CLR
12:03 -9.6 °C -14.4 °C 34591.4 hPa NW 38.8 km/h 38.8 km/h 56 % 0 mm 721.0 W/m2 CLR
12:04 -9.6 °C -14.4 °C 34591.4 hPa WNW 35.7 km/h 35.7 km/h 56 % 0 mm 712.0 W/m2 CLR
12:09 -9.5 °C -14.2 °C 34591.4 hPa WNW 47.6 km/h 47.6 km/h 57 % 0 mm 722.0 W/m2 CLR
12:14 -9.4 °C -14.2 °C 34577.8 hPa WNW 29.8 km/h 29.8 km/h 56 % 0 mm 721.0 W/m2 CLR
12:19 -9.3 °C -14.3 °C 34577.8 hPa WNW 44.7 km/h 44.7 km/h 55 % 0 mm 735.0 W/m2 CLR
12:24 -9.1 °C -14.4 °C 34577.8 hPa WNW 44.7 km/h 44.7 km/h 53 % 0 mm 747.0 W/m2 CLR
12:29 -9.2 °C -14.3 °C 34577.8 hPa NW 32.8 km/h 32.8 km/h 54 % 0 mm 745.0 W/m2 CLR
12:34 -9.1 °C -14.3 °C 34577.8 hPa WNW 35.7 km/h 35.7 km/h 54 % 0 mm 761.0 W/m2 CLR
12:39 -9 °C -14.2 °C 34577.8 hPa NNW 32.8 km/h 32.8 km/h 54 % 0 mm 772.0 W/m2 CLR
12:44 -8.8 °C -14.1 °C 34567.7 hPa NW 29.8 km/h 29.8 km/h 53 % 0 mm 788.0 W/m2 CLR
12:49 -8.7 °C -14.5 °C 34567.7 hPa West 41.7 km/h 41.7 km/h 50 % 0 mm 784.0 W/m2 CLR
12:54 -8.8 °C -14.3 °C 34567.7 hPa WNW 29.8 km/h 29.8 km/h 52 % 0 mm 784.0 W/m2 CLR
12:59 -8.7 °C -14.2 °C 34567.7 hPa West 25.9 km/h 25.9 km/h 52 % 0 mm 791.0 W/m2 CLR
13:04 -8.7 °C -14.5 °C 34567.7 hPa NW 38.8 km/h 38.8 km/h 50 % 0 mm 798.0 W/m2 CLR
13:09 -8.7 °C -14.3 °C 34567.7 hPa WNW 41.7 km/h 41.7 km/h 51 % 0 mm 807.0 W/m2 CLR
13:14 -8.7 °C -14.4 °C 34554.1 hPa NNW 50.7 km/h 50.7 km/h 50 % 0 mm 807.0 W/m2 CLR
13:19 -8.6 °C -14.4 °C 34554.1 hPa NNW 50.7 km/h 50.7 km/h 50 % 0 mm 817.0 W/m2 CLR
13:24 -8.4 °C -14.3 °C 34554.1 hPa NW 29.8 km/h 29.8 km/h 50 % 0 mm 817.0 W/m2 CLR
13:29 -8.4 °C -14.4 °C 34544 hPa NW 41.7 km/h 41.7 km/h 49 % 0 mm 805.0 W/m2 CLR
13:34 -8.4 °C -14.6 °C 34544 hPa NNW 50.7 km/h 50.7 km/h 48 % 0 mm 810.0 W/m2 CLR
13:39 -8.3 °C -14.1 °C 34533.8 hPa NW 41.7 km/h 41.7 km/h 50 % 0 mm 824.0 W/m2 CLR
13:44 -8.2 °C -14.3 °C 34544 hPa WNW 50.7 km/h 50.7 km/h 48 % 0 mm 826.0 W/m2 CLR
13:49 -8.2 °C -14.2 °C 34544 hPa NW 41.4 km/h 41.4 km/h 49 % 0 mm 838.0 W/m2 CLR
13:54 -8.2 °C -14.2 °C 34533.8 hPa NW 35.7 km/h 35.7 km/h 49 % 0 mm 826.0 W/m2 CLR
13:59 -8.1 °C -14.5 °C 34533.8 hPa NW 41.7 km/h 41.7 km/h 47 % 0 mm 842.0 W/m2 CLR
14:04 -8.1 °C -14.4 °C 34533.8 hPa NW 56.6 km/h 56.6 km/h 47 % 0 mm 821.0 W/m2 CLR
14:09 -7.9 °C -14.5 °C 34533.8 hPa WNW 50.7 km/h 50.7 km/h 46 % 0 mm 838.0 W/m2 CLR
14:14 -7.9 °C -14.5 °C 34520.3 hPa NNW 38.8 km/h 38.8 km/h 46 % 0 mm 819.0 W/m2 CLR
14:19 -7.8 °C -14.4 °C 34520.3 hPa West 38.8 km/h 38.8 km/h 46 % 0 mm 831.0 W/m2 CLR
14:24 -7.8 °C -14.6 °C 34510.1 hPa NW 56.6 km/h 56.6 km/h 45 % 0 mm 833.0 W/m2 CLR
14:29 -7.7 °C -14.4 °C 34510.1 hPa NW 44.1 km/h 44.1 km/h 45 % 0 mm 821.0 W/m2 CLR
14:34 -7.6 °C -14.9 °C 34510.1 hPa WNW 38.8 km/h 38.8 km/h 42 % 0 mm 840.0 W/m2 CLR
14:39 -7.5 °C -14.4 °C 34496.6 hPa WNW 38.8 km/h 38.8 km/h 44 % 0 mm 830.0 W/m2 CLR
14:49 -7.6 °C -14.5 °C 34496.6 hPa NW 50.7 km/h 50.7 km/h 44 % 0 mm 816.0 W/m2 CLR
14:54 -7.4 °C -14.6 °C 34496.6 hPa WNW 41.7 km/h 41.7 km/h 43 % 0 mm 810.0 W/m2 CLR
14:59 -7.3 °C -14.8 °C 34496.6 hPa WNW 44.7 km/h 44.7 km/h 41 % 0 mm 810.0 W/m2 CLR
15:04 -7.3 °C -14.7 °C 34486.4 hPa NW 32.8 km/h 32.8 km/h 42 % 0 mm 807.0 W/m2 CLR
15:09 -7.3 °C -14.8 °C 34486.4 hPa NNW 31.1 km/h 31.1 km/h 41 % 0 mm 793.0 W/m2 CLR
15:14 -7.1 °C -14.6 °C 34486.4 hPa WNW 41.7 km/h 41.7 km/h 41 % 0 mm 791.0 W/m2 CLR
15:19 -7.1 °C -14.6 °C 34476.3 hPa NW 32.8 km/h 32.8 km/h 41 % 0 mm 807.0 W/m2 CLR
15:24 -7 °C -14.8 °C 34476.3 hPa NW 59.5 km/h 59.5 km/h 40 % 0 mm 796.0 W/m2 CLR
15:29 -7.1 °C -14.8 °C 34476.3 hPa WNW 29.8 km/h 29.8 km/h 40 % 0 mm 777.0 W/m2 CLR
15:30 -7.1 °C -14.6 °C 34476.3 hPa WNW 29.8 km/h 29.8 km/h 41 % 0 mm 754.0 W/m2 CLR
15:35 -7 °C -14.9 °C 34462.7 hPa NW 41.7 km/h 41.7 km/h 39 % 0 mm 761.0 W/m2 CLR
15:40 -7 °C -14.8 °C 34462.7 hPa WNW 50.7 km/h 50.7 km/h 40 % 0 mm 772.0 W/m2 CLR
15:45 -6.9 °C -14.8 °C 34452.6 hPa WNW 44.1 km/h 44.1 km/h 39 % 0 mm 772.0 W/m2 CLR
15:50 -6.8 °C -15 °C 34452.6 hPa WNW 44.7 km/h 44.7 km/h 38 % 0 mm 751.0 W/m2 CLR
15:55 -6.8 °C -14.9 °C 34452.6 hPa NW 29.8 km/h 29.8 km/h 38 % 0 mm 731.0 W/m2 CLR
16:00 -6.8 °C -15.2 °C 34452.6 hPa WNW 41.7 km/h 41.7 km/h 37 % 0 mm 729.0 W/m2 CLR
16:05 -6.8 °C -15.4 °C 34452.6 hPa NNW 41.7 km/h 41.7 km/h 36 % 0 mm 744.0 W/m2 CLR
16:10 -6.8 °C -15.4 °C 34442.4 hPa West 38.8 km/h 38.8 km/h 36 % 0 mm 745.0 W/m2 CLR
16:15 -6.6 °C -15.1 °C 34442.4 hPa NNW 29.8 km/h 29.8 km/h 37 % 0 mm 671.0 W/m2 CLR
16:20 -6.6 °C -15.7 °C 34442.4 hPa NNW 38.8 km/h 38.8 km/h 34 % 0 mm 670.0 W/m2 CLR
16:25 -6.6 °C -15.7 °C 34428.8 hPa NW 47.6 km/h 47.6 km/h 34 % 0 mm 642.0 W/m2 CLR
16:30 -6.6 °C -15.4 °C 34428.8 hPa NNW 47.6 km/h 47.6 km/h 35 % 0 mm 575.0 W/m2 CLR
16:35 -6.6 °C -15.2 °C 34428.8 hPa NW 36.2 km/h 36.2 km/h 36 % 0 mm 568.0 W/m2 CLR
16:40 -6.6 °C -15.2 °C 34428.8 hPa NNW 44.7 km/h 44.7 km/h 36 % 0 mm 628.0 W/m2 CLR
16:45 -6.6 °C -15.4 °C 34428.8 hPa NNW 47.6 km/h 47.6 km/h 35 % 0 mm 545.0 W/m2 CLR
16:50 -6.6 °C -15.4 °C 34428.8 hPa NW 28.5 km/h 28.5 km/h 35 % 0 mm 629.0 W/m2 CLR
16:55 -6.4 °C -15.1 °C 34428.8 hPa NNW 32.8 km/h 32.8 km/h 36 % 0 mm 608.0 W/m2 CLR
17:00 -6.3 °C -15.9 °C 34428.8 hPa WNW 47.6 km/h 47.6 km/h 32 % 0 mm 605.0 W/m2 CLR
17:05 -6.3 °C -16.2 °C 34428.8 hPa NNW 50.7 km/h 50.7 km/h 31 % 0 mm 591.0 W/m2 CLR
17:10 -6.3 °C -15.9 °C 34418.7 hPa WNW 44.7 km/h 44.7 km/h 32 % 0 mm 568.0 W/m2 CLR
17:15 -6.3 °C -15.9 °C 34418.7 hPa WNW 38.8 km/h 38.8 km/h 32 % 0 mm 559.0 W/m2 CLR
17:20 -6.3 °C -15.4 °C 34418.7 hPa NW 29.8 km/h 29.8 km/h 34 % 0 mm 545.0 W/m2 CLR
17:21 -6.3 °C -15.7 °C 34418.7 hPa NNW 44.7 km/h 44.7 km/h 33 % 0 mm 543.0 W/m2 CLR
17:26 -6.3 °C -15.5 °C 34418.7 hPa NNW 47.6 km/h 47.6 km/h 34 % 0 mm 529.0 W/m2 CLR
17:31 -6.4 °C -15.3 °C 34418.7 hPa NNW 29.8 km/h 29.8 km/h 35 % 0 mm 510.0 W/m2 CLR
17:36 -6.3 °C -15.7 °C 34418.7 hPa North 36.2 km/h 36.2 km/h 33 % 0 mm 501.0 W/m2 CLR
17:41 -6.3 °C -15.7 °C 34418.7 hPa NW 38.8 km/h 38.8 km/h 33 % 0 mm 475.0 W/m2 CLR
17:46 -6.3 °C -15.7 °C 34405.1 hPa WNW 44.7 km/h 44.7 km/h 33 % 0 mm 464.0 W/m2 CLR
17:51 -6.3 °C -15.5 °C 34405.1 hPa NW 41.7 km/h 41.7 km/h 34 % 0 mm 452.0 W/m2 CLR
17:56 -6.3 °C -15.7 °C 34405.1 hPa NW 41.7 km/h 41.7 km/h 33 % 0 mm 425.0 W/m2 CLR
18:01 -6.3 °C -15.7 °C 34405.1 hPa NNW 38.8 km/h 38.8 km/h 33 % 0 mm 406.0 W/m2 CLR
18:06 -6.3 °C -15.4 °C 34405.1 hPa NNW 44.7 km/h 44.7 km/h 34 % 0 mm 399.0 W/m2 CLR
18:11 -6.4 °C -16 °C 34405.1 hPa NNW 47.6 km/h 47.6 km/h 32 % 0 mm 387.0 W/m2 CLR
18:16 -6.4 °C -15.8 °C 34405.1 hPa NW 41.7 km/h 41.7 km/h 33 % 0 mm 373.0 W/m2 CLR
18:21 -6.4 °C -15.5 °C 34405.1 hPa NW 29.8 km/h 29.8 km/h 34 % 0 mm 345.0 W/m2 CLR
18:26 -6.3 °C -15.2 °C 34405.1 hPa NW 32.8 km/h 32.8 km/h 35 % 0 mm 332.0 W/m2 CLR
18:31 -6.3 °C -15.2 °C 34405.1 hPa NW 41.7 km/h 41.7 km/h 35 % 0 mm 315.0 W/m2 CLR
18:36 -6.4 °C -15.3 °C 34405.1 hPa WNW 35.7 km/h 35.7 km/h 35 % 0 mm 301.0 W/m2 CLR
18:41 -6.4 °C -15.3 °C 34395 hPa NW 38.8 km/h 38.8 km/h 35 % 0 mm 281.0 W/m2 CLR
18:46 -6.4 °C -15.5 °C 34395 hPa NW 38.8 km/h 38.8 km/h 34 % 0 mm 267.0 W/m2 CLR
18:51 -6.5 °C -15.4 °C 34395 hPa NNW 44.1 km/h 44.1 km/h 35 % 0 mm 250.0 W/m2 CLR
18:56 -6.6 °C -15.4 °C 34395 hPa WNW 41.7 km/h 41.7 km/h 35 % 0 mm 237.0 W/m2 CLR
19:01 -6.6 °C -15.7 °C 34395 hPa NNW 38.8 km/h 38.8 km/h 34 % 0 mm 213.0 W/m2 CLR
19:07 -6.6 °C -15.7 °C 34395 hPa WNW 29.8 km/h 29.8 km/h 34 % 0 mm 192.0 W/m2 CLR
19:12 -6.6 °C -15.4 °C 34395 hPa NW 17.9 km/h 17.9 km/h 35 % 0 mm 174.0 W/m2 CLR
19:17 -6.5 °C -15.2 °C 34405.1 hPa NW 9 km/h 9 km/h 36 % 0 mm 156.0 W/m2 CLR
19:22 -6.6 °C -15.3 °C 34405.1 hPa NW 35.7 km/h 35.7 km/h 36 % 0 mm 141.0 W/m2 CLR
19:27 -6.8 °C -15.4 °C 34405.1 hPa NNW 44.7 km/h 44.7 km/h 36 % 0 mm 118.0 W/m2 CLR
19:32 -6.9 °C -15.5 °C 34405.1 hPa NW 38.8 km/h 38.8 km/h 36 % 0 mm 102.0 W/m2 CLR
19:37 -6.9 °C -15.3 °C 34405.1 hPa NW 29.8 km/h 29.8 km/h 37 % 0 mm 88.0 W/m2 CLR
19:42 -6.9 °C -15.3 °C 34418.7 hPa WNW 29.8 km/h 29.8 km/h 37 % 0 mm 74.0 W/m2 FEW
19:43 -7 °C -15.3 °C 34418.7 hPa NW 29.8 km/h 29.8 km/h 37 % 0 mm 65.0 W/m2 SCT
19:48 -7.1 °C -15.3 °C 34418.7 hPa NW 47.6 km/h 47.6 km/h 38 % 0 mm 47.0 W/m2 SCT
19:53 -7.2 °C -15.2 °C 34418.7 hPa NW 26.9 km/h 26.9 km/h 39 % 0 mm 42.0 W/m2 BKN
19:58 -7.3 °C -15.2 °C 34418.7 hPa WNW 36.2 km/h 36.2 km/h 39 % 0 mm 33.0 W/m2 BKN
20:03 -7.4 °C -15.1 °C 34418.7 hPa NW 29.8 km/h 29.8 km/h 40 % 0 mm 25.0 W/m2 BKN
20:08 -7.6 °C -15.1 °C 34418.7 hPa NNW 29.8 km/h 29.8 km/h 41 % 0 mm 18.0 W/m2 BKN
20:13 -7.7 °C -14.9 °C 34418.7 hPa NW 31.1 km/h 31.1 km/h 42 % 0 mm 14.0 W/m2 BKN
20:18 -7.8 °C -14.9 °C 34418.7 hPa NW 29.8 km/h 29.8 km/h 43 % 0 mm 12.0 W/m2 BKN
20:23 -7.9 °C -15 °C 34418.7 hPa West 11.9 km/h 11.9 km/h 43 % 0 mm 7.0 W/m2 BKN
20:28 -8 °C -14.9 °C 34418.7 hPa West 9 km/h 9 km/h 44 % 0 mm 5.0 W/m2 OVC
20:33 -8.1 °C -14.8 °C 34428.8 hPa WNW 20.9 km/h 20.9 km/h 45 % 0 mm 0.0 W/m2 OVC
20:38 -8.2 °C -14.9 °C 34428.8 hPa WNW 11.9 km/h 11.9 km/h 45 % 0 mm 0.0 W/m2 OVC
20:44 -8.3 °C -14.8 °C 34428.8 hPa Calm     46 % 0 mm 0.0 W/m2 CLR
20:54 -8.5 °C -14.9 °C 34428.8 hPa WNW 9 km/h 9 km/h 46 % 0 mm 0.0 W/m2 CLR
20:59 -8.6 °C -15.1 °C 34428.8 hPa WNW 29.8 km/h 29.8 km/h 46 % 0 mm 0.0 W/m2 CLR
21:04 -8.6 °C -15.1 °C 34442.4 hPa West 9 km/h 12.4 km/h 46 % 0 mm 0.0 W/m2 CLR
21:09 -8.5 °C -15.2 °C 34442.4 hPa West 18.2 km/h 18.2 km/h 45 % 0 mm 0.0 W/m2 CLR
21:14 -8.6 °C -15.1 °C 34442.4 hPa West 29.8 km/h 29.8 km/h 46 % 0 mm 0.0 W/m2 CLR
21:19 -8.7 °C -15.1 °C 34442.4 hPa WSW 20.9 km/h 20.9 km/h 46 % 0 mm 0.0 W/m2 CLR
21:24 -8.7 °C -15.2 °C 34452.6 hPa WSW 3.1 km/h 3.1 km/h 46 % 0 mm 0.0 W/m2 CLR
21:29 -8.8 °C -15.1 °C 34452.6 hPa West 9 km/h 9 km/h 47 % 0 mm 0.0 W/m2 CLR
21:34 -8.8 °C -15.2 °C 34462.7 hPa NW 3.1 km/h 6.8 km/h 47 % 0 mm 0.0 W/m2 CLR
21:39 -8.9 °C -15.2 °C 34462.7 hPa Calm     47 % 0 mm 0.0 W/m2 CLR
21:44 -9 °C -15.2 °C 34462.7 hPa WSW 2.6 km/h 2.6 km/h 47 % 0 mm 0.0 W/m2 CLR
21:49 -9 °C -15.1 °C 34462.7 hPa Calm     48 % 0 mm 0.0 W/m2 CLR
21:54 -9.1 °C -15.2 °C 34462.7 hPa West 9 km/h 9 km/h 48 % 0 mm 0.0 W/m2 CLR
21:59 -9.2 °C -15.3 °C 34476.3 hPa Calm   0.8 km/h 48 % 0 mm 0.0 W/m2 CLR
22:04 -9.2 °C -15.3 °C 34476.3 hPa West 9 km/h 9 km/h 48 % 0 mm 0.0 W/m2 CLR
22:09 -9.2 °C -15.3 °C 34476.3 hPa West 9 km/h 9 km/h 48 % 0 mm 0.0 W/m2 CLR
22:14 -9.3 °C -15.2 °C 34476.3 hPa Calm     49 % 0 mm 0.0 W/m2 CLR
22:19 -9.4 °C -15.2 °C 34486.4 hPa Calm     50 % 0 mm 0.0 W/m2 CLR
22:24 -9.6 °C -15.2 °C 34486.4 hPa WSW 9 km/h 9 km/h 51 % 0 mm 0.0 W/m2 CLR
22:29 -9.7 °C -15.3 °C 34486.4 hPa West 9 km/h 9 km/h 51 % 0 mm 0.0 W/m2 CLR
22:34 -9.7 °C -15.4 °C 34486.4 hPa West 11.9 km/h 11.9 km/h 50 % 0 mm 0.0 W/m2 CLR
22:39 -9.7 °C -15.4 °C 34486.4 hPa WSW 6 km/h 6 km/h 50 % 0 mm 0.0 W/m2 CLR
22:44 -9.8 °C -15.3 °C 34496.6 hPa Calm     51 % 0 mm 0.0 W/m2 CLR
22:49 -9.8 °C -15.4 °C 34496.6 hPa Calm     51 % 0 mm 0.0 W/m2 CLR
22:54 -9.9 °C -15.4 °C 34496.6 hPa WSW 9 km/h 9 km/h 52 % 0 mm 0.0 W/m2 CLR
22:59 -10.1 °C -15.4 °C 34496.6 hPa WSW 9 km/h 9 km/h 52 % 0 mm 0.0 W/m2 CLR
23:04 -10.1 °C -15.4 °C 34496.6 hPa WSW 15 km/h 15 km/h 52 % 0 mm 0.0 W/m2 CLR
23:09 -10.1 °C -15.4 °C 34510.1 hPa SW 9 km/h 9 km/h 52 % 0 mm 0.0 W/m2 CLR
23:14 -10.2 °C -15.5 °C 34510.1 hPa WSW 15 km/h 15 km/h 52 % 0 mm 0.0 W/m2 CLR
23:19 -10.2 °C -15.4 °C 34510.1 hPa WSW 11.9 km/h 11.9 km/h 53 % 0 mm 0.0 W/m2 CLR
23:24 -10.2 °C -15.6 °C 34510.1 hPa WSW 12.9 km/h 12.9 km/h 52 % 0 mm 0.0 W/m2 CLR
23:29 -10.2 °C -15.6 °C 34510.1 hPa WSW 9 km/h 9 km/h 52 % 0 mm 0.0 W/m2 CLR
23:34 -10.3 °C -15.5 °C 34520.3 hPa SW 7.7 km/h 7.7 km/h 53 % 0 mm 0.0 W/m2 CLR
23:39 -10.4 °C -15.5 °C 34520.3 hPa SSW 11.9 km/h 11.9 km/h 54 % 0 mm 0.0 W/m2 CLR
23:44 -10.6 °C -15.5 °C 34520.3 hPa WSW 11.9 km/h 11.9 km/h 55 % 0 mm 0.0 W/m2 CLR
23:49 -10.6 °C -15.5 °C 34520.3 hPa West 11.9 km/h 11.9 km/h 55 % 0 mm 0.0 W/m2 CLR
23:54 -10.5 °C -15.4 °C 34533.8 hPa West 6 km/h 6 km/h 55 % 0 mm 0.0 W/m2 CLR
23:59 -10.4 °C -15.2 °C 34533.8 hPa WSW 9 km/h 9 km/h 56 % 0 mm 0.0 W/m2 CLR
Lo Temps de Massalio
Compliments of Weather Underground - 1.25 mb